createdAt,value
2019-02-19T00:01:31.413Z,16.53
2019-02-19T00:04:00.725Z,15.73
2019-02-19T00:06:30.044Z,16.77
2019-02-19T00:08:59.245Z,16.80
2019-02-19T00:11:28.489Z,16.13
2019-02-19T00:13:57.724Z,14.93
2019-02-19T00:16:27.018Z,17.40
2019-02-19T00:18:56.240Z,16.47
2019-02-19T00:21:25.527Z,12.10
2019-02-19T00:23:54.735Z,14.00
2019-02-19T00:26:24.017Z,13.40
2019-02-19T00:28:53.348Z,13.40
2019-02-19T00:31:22.633Z,15.63
2019-02-19T00:33:51.940Z,20.23
2019-02-19T00:36:21.226Z,15.03
2019-02-19T00:38:50.548Z,17.80
2019-02-19T00:41:19.773Z,12.43
2019-02-19T00:43:49.004Z,14.23
2019-02-19T00:46:18.174Z,16.00
2019-02-19T00:48:47.367Z,18.83
2019-02-19T00:51:16.619Z,16.30
2019-02-19T00:53:45.868Z,15.50
2019-02-19T00:56:15.128Z,13.77
2019-02-19T00:58:44.325Z,13.27
2019-02-19T01:01:13.523Z,17.27
2019-02-19T01:03:42.848Z,14.30
2019-02-19T01:06:12.217Z,12.50
2019-02-19T01:08:41.433Z,13.30
2019-02-19T01:11:10.747Z,13.07
2019-02-19T01:13:40.030Z,12.87
2019-02-19T01:16:10.667Z,13.27
2019-02-19T01:18:38.617Z,10.20
2019-02-19T01:21:07.848Z,22.23
2019-02-19T01:23:37.127Z,11.40
2019-02-19T01:26:06.446Z,12.53
2019-02-19T01:28:36.751Z,12.73
2019-02-19T01:31:06.071Z,10.43
2019-02-19T01:33:35.353Z,12.03
2019-02-19T01:36:04.569Z,11.43
2019-02-19T01:38:33.748Z,12.60
2019-02-19T01:41:02.953Z,13.30
2019-02-19T01:43:32.255Z,12.30
2019-02-19T01:46:01.466Z,12.73
2019-02-19T01:48:30.753Z,11.20
2019-02-19T01:51:00.102Z,15.40
2019-02-19T01:53:29.278Z,14.67
2019-02-19T01:55:58.569Z,10.93
2019-02-19T01:58:27.868Z,13.70
2019-02-19T02:00:57.069Z,13.07
2019-02-19T02:03:26.268Z,11.50
2019-02-19T02:05:55.568Z,11.27
2019-02-19T02:08:24.850Z,13.10
2019-02-19T02:10:54.103Z,11.10
2019-02-19T02:13:23.347Z,11.27
2019-02-19T02:15:52.581Z,14.10
2019-02-19T02:18:21.837Z,11.73
2019-02-19T02:20:51.147Z,14.17
2019-02-19T02:23:20.370Z,10.83
2019-02-19T02:25:49.647Z,11.00
2019-02-19T02:28:18.873Z,13.10
2019-02-19T02:30:48.085Z,15.23
2019-02-19T02:33:17.276Z,12.83
2019-02-19T02:35:46.446Z,11.17
2019-02-19T02:38:15.666Z,13.73
2019-02-19T02:40:44.942Z,11.37
2019-02-19T02:43:14.164Z,11.70
2019-02-19T02:45:52.412Z,11.90
2019-02-19T02:48:12.669Z,12.07
2019-02-19T02:50:41.949Z,11.30
2019-02-19T02:53:11.262Z,13.03
2019-02-19T02:55:40.553Z,12.03
2019-02-19T02:58:09.881Z,11.83
2019-02-19T03:00:39.099Z,12.23
2019-02-19T03:03:08.373Z,15.23
2019-02-19T03:05:38.558Z,13.03
2019-02-19T03:08:08.027Z,14.57
2019-02-19T03:10:37.273Z,12.57
2019-02-19T03:13:06.498Z,13.00
2019-02-19T03:15:35.672Z,12.17
2019-02-19T03:18:04.987Z,12.43
2019-02-19T03:20:34.294Z,15.73
2019-02-19T03:23:03.470Z,14.00
2019-02-19T03:25:32.691Z,15.20
2019-02-19T03:28:01.880Z,15.23
2019-02-19T03:30:31.194Z,15.00
2019-02-19T03:33:00.416Z,16.67
2019-02-19T03:35:29.693Z,13.33
2019-02-19T03:37:59.224Z,16.97
2019-02-19T03:40:28.501Z,15.30
2019-02-19T03:42:57.678Z,17.90
2019-02-19T03:45:26.882Z,15.47
2019-02-19T03:47:56.116Z,15.63
2019-02-19T03:50:25.336Z,19.50
2019-02-19T03:52:54.528Z,15.70
2019-02-19T03:55:23.725Z,15.77
2019-02-19T03:57:52.964Z,17.40
2019-02-19T04:00:22.167Z,14.53
2019-02-19T04:02:51.366Z,15.07
2019-02-19T04:05:20.702Z,16.77
2019-02-19T04:07:49.909Z,17.00
2019-02-19T04:10:19.122Z,16.00
2019-02-19T04:12:48.419Z,19.47
2019-02-19T04:15:17.631Z,20.13
2019-02-19T04:17:46.856Z,19.43
2019-02-19T04:20:16.041Z,18.27
2019-02-19T04:22:45.274Z,18.30
2019-02-19T04:25:14.571Z,18.33
2019-02-19T04:27:43.892Z,19.90
2019-02-19T04:30:13.172Z,22.40
2019-02-19T04:32:42.396Z,20.93
2019-02-19T04:35:11.685Z,23.17
2019-02-19T04:37:40.988Z,23.77
2019-02-19T04:40:10.191Z,25.07
2019-02-19T04:42:39.496Z,25.13
2019-02-19T04:45:08.770Z,25.63
2019-02-19T04:47:38.085Z,22.60
2019-02-19T04:50:07.370Z,28.63
2019-02-19T04:52:36.701Z,25.03
2019-02-19T04:55:05.911Z,28.60
2019-02-19T04:57:35.107Z,32.20
2019-02-19T05:00:04.818Z,34.30
2019-02-19T05:02:34.075Z,31.20
2019-02-19T05:05:03.327Z,30.73
2019-02-19T05:07:32.499Z,33.40
2019-02-19T05:10:01.801Z,35.93
2019-02-19T05:12:31.080Z,32.93
2019-02-19T05:15:00.371Z,34.33
2019-02-19T05:17:29.577Z,35.00
2019-02-19T05:19:58.809Z,38.90
2019-02-19T05:22:28.009Z,35.43
2019-02-19T05:24:57.231Z,37.50
2019-02-19T05:27:26.443Z,37.47
2019-02-19T05:29:55.655Z,38.17
2019-02-19T05:32:24.873Z,40.30
2019-02-19T05:34:54.095Z,38.50
2019-02-19T05:37:23.301Z,39.10
2019-02-19T05:39:52.591Z,40.40
2019-02-19T05:42:21.771Z,42.63
2019-02-19T05:44:50.971Z,38.37
2019-02-19T05:47:20.173Z,40.63
2019-02-19T05:49:49.493Z,46.17
2019-02-19T05:52:18.750Z,37.27
2019-02-19T05:54:47.984Z,36.73
2019-02-19T05:57:17.191Z,36.80
2019-02-19T05:59:46.481Z,37.93
2019-02-19T06:02:15.793Z,38.77
2019-02-19T06:04:45.085Z,39.13
2019-02-19T06:07:14.304Z,42.93
2019-02-19T06:09:43.494Z,40.40
2019-02-19T06:12:12.782Z,38.50
2019-02-19T06:14:42.058Z,36.57
2019-02-19T06:17:11.351Z,39.00
2019-02-19T06:19:40.521Z,38.67
2019-02-19T06:22:09.799Z,40.33
2019-02-19T06:24:38.982Z,42.93
2019-02-19T06:27:08.286Z,43.97
2019-02-19T06:29:37.583Z,41.93
2019-02-19T06:32:06.885Z,41.80
2019-02-19T06:34:36.183Z,40.23
2019-02-19T06:37:05.433Z,41.60
2019-02-19T06:39:34.821Z,43.50
2019-02-19T06:42:04.296Z,39.70
2019-02-19T06:44:33.592Z,45.30
2019-02-19T06:47:06.822Z,43.33
2019-02-19T06:49:32.303Z,39.33
2019-02-19T06:52:01.584Z,45.93
2019-02-19T06:54:30.913Z,42.23
2019-02-19T06:57:00.289Z,44.90
2019-02-19T06:59:29.637Z,43.60
2019-02-19T07:02:20.522Z,42.90
2019-02-19T07:04:55.501Z,45.87
2019-02-19T07:07:24.796Z,44.77
2019-02-19T07:09:54.074Z,37.40
2019-02-19T07:12:23.282Z,42.77
2019-02-19T07:14:52.651Z,40.70
2019-02-19T07:17:21.936Z,43.33
2019-02-19T07:19:51.253Z,43.03
2019-02-19T07:22:20.541Z,37.90
2019-02-19T07:24:49.762Z,41.17
2019-02-19T07:27:19.216Z,34.00
2019-02-19T07:29:48.506Z,34.57
2019-02-19T07:32:17.775Z,35.70
2019-02-19T07:34:47.266Z,32.00
2019-02-19T07:37:16.551Z,30.40
2019-02-19T07:39:45.774Z,30.23
2019-02-19T07:42:15.030Z,28.73
2019-02-19T07:44:44.355Z,29.77
2019-02-19T07:47:13.663Z,29.40
2019-02-19T07:49:42.960Z,34.93
2019-02-19T07:52:12.226Z,27.83
2019-02-19T07:54:41.646Z,33.87
2019-02-19T07:57:10.877Z,29.03
2019-02-19T07:59:40.105Z,25.27
2019-02-19T08:02:09.481Z,25.00
2019-02-19T08:04:38.764Z,26.10
2019-02-19T08:07:08.205Z,23.23
2019-02-19T08:09:37.415Z,20.10
2019-02-19T08:12:06.690Z,20.63
2019-02-19T08:14:36.176Z,19.57
2019-02-19T08:17:05.491Z,20.87
2019-02-19T08:19:34.768Z,21.67
2019-02-19T08:22:04.298Z,19.97
2019-02-19T08:24:33.590Z,23.20
2019-02-19T08:27:02.705Z,25.10
2019-02-19T08:29:32.071Z,21.97
2019-02-19T08:32:01.394Z,21.13
2019-02-19T08:34:30.615Z,19.03
2019-02-19T08:36:59.864Z,18.83
2019-02-19T08:39:29.081Z,19.13
2019-02-19T08:41:58.510Z,23.33
2019-02-19T08:44:27.920Z,19.53
2019-02-19T08:46:57.152Z,25.83
2019-02-19T08:49:26.374Z,23.67
2019-02-19T08:51:56.240Z,21.87
2019-02-19T08:54:25.087Z,23.03
2019-02-19T08:56:54.336Z,24.47
2019-02-19T08:59:23.987Z,23.67
2019-02-19T09:01:53.538Z,24.17
2019-02-19T09:04:22.857Z,24.53
2019-02-19T09:06:52.104Z,23.13
2019-02-19T09:09:21.398Z,25.97
2019-02-19T09:11:50.618Z,24.47
2019-02-19T09:14:19.934Z,23.93
2019-02-19T09:16:49.171Z,24.67
2019-02-19T09:19:18.533Z,28.03
2019-02-19T09:21:47.738Z,25.20
2019-02-19T09:24:17.043Z,27.03
2019-02-19T09:26:46.248Z,25.57
2019-02-19T09:29:15.516Z,25.53
2019-02-19T09:31:44.729Z,26.07
2019-02-19T09:34:14.133Z,24.97
2019-02-19T09:36:43.412Z,24.57
2019-02-19T09:39:12.584Z,20.70
2019-02-19T09:41:41.900Z,20.87
2019-02-19T09:44:11.108Z,23.40
2019-02-19T09:46:40.404Z,28.13
2019-02-19T09:49:09.719Z,24.83
2019-02-19T09:51:39.108Z,22.23
2019-02-19T09:54:08.432Z,24.70
2019-02-19T09:56:37.735Z,19.07
2019-02-19T09:59:07.017Z,20.33
2019-02-19T10:01:36.306Z,26.63
2019-02-19T10:04:05.629Z,24.13
2019-02-19T10:06:34.917Z,25.10
2019-02-19T10:09:05.194Z,22.93
2019-02-19T10:11:34.396Z,24.20
2019-02-19T10:14:03.607Z,20.00
2019-02-19T10:16:41.174Z,23.47
2019-02-19T10:19:02.060Z,21.67
2019-02-19T10:21:31.339Z,20.60
2019-02-19T10:24:00.535Z,24.10
2019-02-19T10:26:29.859Z,25.53
2019-02-19T10:28:59.130Z,23.10
2019-02-19T10:31:28.462Z,23.10
2019-02-19T10:33:57.736Z,23.40
2019-02-19T10:36:26.977Z,21.80
2019-02-19T10:38:56.194Z,20.80
2019-02-19T10:41:25.468Z,22.40
2019-02-19T10:43:54.684Z,24.43
2019-02-19T10:46:23.953Z,26.17
2019-02-19T10:48:53.234Z,22.17
2019-02-19T10:51:22.455Z,22.63
2019-02-19T10:53:51.738Z,25.73
2019-02-19T10:56:20.967Z,23.50
2019-02-19T10:58:50.233Z,20.30
2019-02-19T11:01:19.439Z,23.17
2019-02-19T11:03:48.834Z,24.73
2019-02-19T11:06:18.128Z,20.53
2019-02-19T11:08:47.386Z,20.77
2019-02-19T11:11:16.649Z,21.00
2019-02-19T11:13:45.955Z,23.10
2019-02-19T11:16:15.193Z,22.93
2019-02-19T11:18:44.435Z,24.67
2019-02-19T11:21:19.658Z,18.67
2019-02-19T11:23:42.959Z,19.03
2019-02-19T11:26:12.258Z,19.33
2019-02-19T11:28:41.425Z,20.60
2019-02-19T11:31:10.749Z,18.43
2019-02-19T11:33:40.058Z,17.63
2019-02-19T11:36:09.241Z,18.90
2019-02-19T11:38:38.569Z,21.50
2019-02-19T11:41:07.837Z,17.60
2019-02-19T11:43:37.057Z,20.50
2019-02-19T11:46:06.344Z,20.37
2019-02-19T11:48:37.153Z,22.00
2019-02-19T11:51:04.941Z,19.93
2019-02-19T11:53:34.265Z,22.90
2019-02-19T11:56:03.539Z,18.47
2019-02-19T11:58:32.865Z,18.53
2019-02-19T12:01:02.142Z,12.33
2019-02-19T12:03:31.339Z,13.83
2019-02-19T12:06:00.524Z,14.17
2019-02-19T12:08:29.769Z,16.40
2019-02-19T12:10:58.964Z,18.10
2019-02-19T12:13:28.367Z,13.90
2019-02-19T12:15:57.643Z,17.37
2019-02-19T12:18:27.291Z,11.90
2019-02-19T12:20:56.519Z,15.43
2019-02-19T12:23:25.741Z,16.77
2019-02-19T12:25:54.965Z,14.40
2019-02-19T12:28:24.243Z,17.30
2019-02-19T12:30:53.513Z,10.57
2019-02-19T12:33:22.743Z,14.97
2019-02-19T12:35:52.069Z,12.77
2019-02-19T12:38:21.361Z,12.20
2019-02-19T12:40:50.678Z,15.73
2019-02-19T12:43:19.961Z,10.17
2019-02-19T12:45:49.266Z,11.13
2019-02-19T12:48:18.548Z,12.23
2019-02-19T12:50:47.883Z,10.80
2019-02-19T12:53:17.088Z,16.63
2019-02-19T12:55:46.335Z,11.63
2019-02-19T12:58:15.667Z,9.43
2019-02-19T13:00:44.970Z,14.00
2019-02-19T13:03:14.171Z,11.57
2019-02-19T13:05:43.446Z,12.90
2019-02-19T13:08:12.661Z,13.47
2019-02-19T13:10:41.983Z,11.97
2019-02-19T13:13:11.293Z,12.70
2019-02-19T13:15:40.529Z,10.10
2019-02-19T13:18:09.753Z,9.87
2019-02-19T13:20:39.085Z,12.07
2019-02-19T13:23:08.351Z,9.77
2019-02-19T13:25:37.690Z,9.57
2019-02-19T13:28:06.976Z,13.47
2019-02-19T13:30:36.263Z,8.87
2019-02-19T13:33:05.484Z,11.37
2019-02-19T13:35:34.668Z,8.90
2019-02-19T13:38:03.897Z,11.93
2019-02-19T13:40:34.617Z,11.77
2019-02-19T13:43:06.768Z,9.57
2019-02-19T13:45:33.913Z,9.07
2019-02-19T13:48:06.032Z,13.93
2019-02-19T13:50:33.243Z,9.93
2019-02-19T13:53:21.981Z,10.60
2019-02-19T13:55:53.958Z,13.00
2019-02-19T13:58:26.028Z,9.53
2019-02-19T14:00:55.370Z,10.47
2019-02-19T14:03:24.590Z,11.33
2019-02-19T14:05:53.813Z,7.47
2019-02-19T14:08:23.243Z,6.87
2019-02-19T14:10:52.657Z,12.03
2019-02-19T14:13:21.852Z,8.63
2019-02-19T14:16:13.571Z,10.77
2019-02-19T14:18:48.317Z,11.03
2019-02-19T14:21:35.197Z,14.93
2019-02-19T14:24:26.188Z,10.03
2019-02-19T14:27:23.497Z,13.57
2019-02-19T14:30:15.447Z,7.40
2019-02-19T14:33:22.317Z,9.60
2019-02-19T14:36:09.242Z,6.83
2019-02-19T14:39:00.794Z,6.00
2019-02-19T14:41:55.099Z,8.77
2019-02-19T14:44:33.741Z,5.90
2019-02-19T14:47:20.867Z,4.97
2019-02-19T14:50:06.002Z,7.20
2019-02-19T14:53:06.665Z,5.30
2019-02-19T14:56:09.938Z,10.90
2019-02-19T14:59:13.211Z,10.17
2019-02-19T15:01:56.612Z,5.40
2019-02-19T15:04:52.949Z,12.47
2019-02-19T15:07:33.585Z,7.80
2019-02-19T15:10:16.730Z,7.00
2019-02-19T15:13:20.450Z,8.57
2019-02-19T15:16:09.194Z,10.30
2019-02-19T15:19:03.516Z,9.53
2019-02-19T15:21:48.832Z,7.67
2019-02-19T15:24:40.076Z,16.47
2019-02-19T15:27:18.880Z,12.33
2019-02-19T15:30:07.137Z,6.87
2019-02-19T15:32:55.462Z,11.80
2019-02-19T15:35:38.595Z,9.57
2019-02-19T15:38:37.632Z,8.10
2019-02-19T15:41:28.607Z,7.30
2019-02-19T15:44:14.930Z,9.90
2019-02-19T15:46:53.979Z,13.00
2019-02-19T15:49:47.919Z,8.20
2019-02-19T15:52:33.510Z,9.43
2019-02-19T15:55:37.122Z,9.63
2019-02-19T15:58:28.159Z,8.67
2019-02-19T16:01:24.194Z,10.10
2019-02-19T16:04:05.322Z,9.93
2019-02-19T16:06:59.822Z,8.03
2019-02-19T16:09:50.666Z,7.77
2019-02-19T16:12:27.729Z,9.43
2019-02-19T16:15:02.541Z,7.80
2019-02-19T16:17:59.525Z,7.77
2019-02-19T16:20:50.544Z,8.03
2019-02-19T16:23:35.048Z,8.17
2019-02-19T16:26:11.512Z,8.43
2019-02-19T16:28:49.478Z,10.07
2019-02-19T16:31:36.400Z,9.73
2019-02-19T16:34:23.980Z,9.03
2019-02-19T16:36:58.919Z,10.50
2019-02-19T16:39:45.983Z,10.23
2019-02-19T16:42:46.375Z,8.10
2019-02-19T16:45:37.520Z,10.03
2019-02-19T16:48:24.414Z,6.90
2019-02-19T16:51:00.286Z,9.13
2019-02-19T16:53:36.407Z,10.30
2019-02-19T16:56:12.958Z,9.73
2019-02-19T16:58:52.713Z,12.23
2019-02-19T17:01:39.792Z,11.33
2019-02-19T17:04:18.577Z,13.60
2019-02-19T17:06:55.253Z,19.70
2019-02-19T17:09:31.921Z,17.80
2019-02-19T17:12:26.938Z,16.63
2019-02-19T17:15:12.167Z,17.30
2019-02-19T17:18:15.770Z,14.47
2019-02-19T17:21:06.452Z,14.93
2019-02-19T17:24:00.591Z,15.57
2019-02-19T17:27:00.941Z,13.03
2019-02-19T17:29:42.057Z,16.00
2019-02-19T17:32:33.043Z,13.60
2019-02-19T17:35:19.906Z,12.93
2019-02-19T17:38:17.356Z,12.37
2019-02-19T17:40:58.493Z,13.63
2019-02-19T17:43:52.684Z,11.87
2019-02-19T17:46:41.057Z,9.10
2019-02-19T17:49:18.082Z,6.37
2019-02-19T17:52:06.399Z,6.40
2019-02-19T17:54:53.354Z,8.17
2019-02-19T17:57:38.985Z,5.57
2019-02-19T18:00:14.701Z,4.83
2019-02-19T18:03:11.908Z,5.10
2019-02-19T18:06:00.215Z,6.83
2019-02-19T18:08:37.542Z,5.67
2019-02-19T18:11:24.873Z,6.70
2019-02-19T18:14:12.070Z,4.83
2019-02-19T18:16:59.035Z,6.73
2019-02-19T18:19:28.292Z,4.53
2019-02-19T18:22:00.494Z,6.57
2019-02-19T18:24:29.754Z,5.27
2019-02-19T18:26:59.054Z,4.93
2019-02-19T18:29:28.255Z,4.80
2019-02-19T18:31:57.949Z,7.80
2019-02-19T18:34:27.198Z,6.47
2019-02-19T18:37:06.078Z,4.70
2019-02-19T18:39:35.331Z,6.37
2019-02-19T18:42:04.712Z,5.60
2019-02-19T18:44:33.909Z,6.63
2019-02-19T18:47:03.136Z,7.00
2019-02-19T18:49:32.389Z,6.33
2019-02-19T18:52:01.708Z,6.27
2019-02-19T18:54:30.924Z,5.00
2019-02-19T18:57:00.307Z,5.43
2019-02-19T18:59:29.502Z,9.03
2019-02-19T19:01:58.753Z,6.13
2019-02-19T19:04:27.957Z,11.63
2019-02-19T19:06:57.218Z,5.37
2019-02-19T19:09:26.447Z,9.03
2019-02-19T19:11:55.838Z,9.67
2019-02-19T19:14:25.023Z,9.13
2019-02-19T19:16:54.255Z,12.20
2019-02-19T19:19:23.492Z,19.77
2019-02-19T19:21:52.812Z,11.70
2019-02-19T19:24:22.089Z,10.13
2019-02-19T19:26:51.794Z,10.13
2019-02-19T19:29:21.652Z,10.23
2019-02-19T19:31:50.923Z,10.70
2019-02-19T19:34:20.235Z,9.23
2019-02-19T19:36:49.533Z,12.13
2019-02-19T19:39:19.950Z,10.07
2019-02-19T19:41:48.025Z,14.60
2019-02-19T19:44:17.232Z,10.97
2019-02-19T19:46:46.532Z,10.43
2019-02-19T19:49:15.819Z,11.97
2019-02-19T19:51:45.144Z,9.37
2019-02-19T19:54:14.481Z,11.17
2019-02-19T19:56:46.734Z,12.17
2019-02-19T19:59:15.990Z,10.77
2019-02-19T20:01:46.309Z,10.93
2019-02-19T20:04:15.561Z,9.30
2019-02-19T20:06:44.777Z,14.67
2019-02-19T20:09:14.150Z,14.90
2019-02-19T20:11:43.407Z,12.17
2019-02-19T20:14:12.829Z,16.33
2019-02-19T20:16:42.030Z,12.43
2019-02-19T20:19:11.266Z,11.67
2019-02-19T20:21:40.520Z,15.00
2019-02-19T20:24:09.724Z,13.60
2019-02-19T20:26:39.033Z,10.73
2019-02-19T20:29:08.264Z,15.07
2019-02-19T20:31:37.513Z,14.83
2019-02-19T20:34:06.759Z,11.60
2019-02-19T20:36:35.978Z,15.87
2019-02-19T20:39:05.741Z,11.00
2019-02-19T20:41:34.961Z,12.00
2019-02-19T20:44:04.258Z,12.80
2019-02-19T20:46:33.599Z,13.60
2019-02-19T20:49:02.832Z,12.23
2019-02-19T20:51:36.444Z,11.53
2019-02-19T20:54:01.436Z,11.67
2019-02-19T20:56:30.682Z,12.73
2019-02-19T20:58:59.923Z,15.03
2019-02-19T21:01:29.254Z,13.43
2019-02-19T21:03:58.563Z,16.27
2019-02-19T21:06:27.862Z,15.27
2019-02-19T21:08:57.136Z,14.03
2019-02-19T21:11:27.693Z,11.80
2019-02-19T21:13:55.736Z,14.37
2019-02-19T21:16:24.969Z,12.53
2019-02-19T21:18:54.341Z,14.27
2019-02-19T21:21:23.569Z,19.17
2019-02-19T21:23:52.773Z,15.63
2019-02-19T21:26:21.974Z,17.13
2019-02-19T21:28:51.169Z,16.00
2019-02-19T21:31:20.450Z,14.43
2019-02-19T21:33:49.706Z,17.37
2019-02-19T21:36:18.923Z,17.07
2019-02-19T21:38:48.236Z,16.43
2019-02-19T21:41:17.519Z,17.93
2019-02-19T21:43:47.421Z,16.10
2019-02-19T21:46:16.605Z,16.23
2019-02-19T21:48:48.110Z,14.00
2019-02-19T21:51:15.094Z,14.40
2019-02-19T21:53:44.330Z,14.73
2019-02-19T21:56:13.653Z,14.27
2019-02-19T21:58:42.859Z,14.60
2019-02-19T22:01:12.303Z,12.53
2019-02-19T22:03:41.579Z,12.50
2019-02-19T22:06:10.843Z,14.43
2019-02-19T22:08:40.106Z,13.23
2019-02-19T22:11:09.366Z,11.63
2019-02-19T22:13:38.619Z,12.83
2019-02-19T22:16:08.173Z,15.63
2019-02-19T22:18:37.475Z,13.17
2019-02-19T22:21:17.573Z,14.83
2019-02-19T22:23:46.771Z,17.90
2019-02-19T22:26:16.013Z,18.60
2019-02-19T22:28:45.282Z,14.17
2019-02-19T22:31:14.629Z,12.80
2019-02-19T22:33:43.864Z,13.93
2019-02-19T22:36:13.113Z,16.00
2019-02-19T22:38:42.436Z,13.63
2019-02-19T22:41:11.632Z,13.70
2019-02-19T22:43:40.822Z,13.03
2019-02-19T22:46:10.051Z,15.63
2019-02-19T22:48:39.318Z,15.70
2019-02-19T22:51:08.639Z,10.67
2019-02-19T22:54:06.241Z,9.90
2019-02-19T22:56:43.105Z,12.93
2019-02-19T22:59:12.333Z,12.20
2019-02-19T23:01:44.290Z,11.33
2019-02-19T23:04:13.521Z,16.10
2019-02-19T23:06:42.739Z,11.77
2019-02-19T23:09:12.229Z,9.70
2019-02-19T23:11:41.558Z,9.70
2019-02-19T23:14:10.841Z,8.27
2019-02-19T23:16:40.061Z,15.40
2019-02-19T23:19:09.325Z,12.90
2019-02-19T23:21:38.583Z,15.67
2019-02-19T23:24:07.859Z,12.53
2019-02-19T23:26:37.114Z,12.23
2019-02-19T23:29:06.422Z,13.20
2019-02-19T23:31:35.759Z,8.20
2019-02-19T23:34:04.958Z,10.60
2019-02-19T23:37:08.610Z,9.53
2019-02-19T23:39:43.607Z,11.80
2019-02-19T23:42:07.018Z,10.23
2019-02-19T23:44:36.250Z,9.33
2019-02-19T23:47:05.535Z,10.23
2019-02-19T23:49:34.748Z,13.83
2019-02-19T23:52:04.117Z,12.57
2019-02-19T23:54:33.448Z,15.93
2019-02-19T23:57:02.737Z,11.27
2019-02-19T23:59:31.957Z,11.63
